sensor_id;sensor_type;location;lat;lon;timestamp;P1;durP1;ratioP1;P2;durP2;ratioP2
75535;SDS011;64119;52.070;20.804;2023-03-01T00:01:40;33.10;;;13.60;;
75535;SDS011;64119;52.070;20.804;2023-03-01T00:04:08;26.40;;;12.80;;
75535;SDS011;64119;52.070;20.804;2023-03-01T00:06:36;29.20;;;14.30;;
75535;SDS011;64119;52.070;20.804;2023-03-01T00:09:04;27.90;;;14.00;;
75535;SDS011;64119;52.070;20.804;2023-03-01T00:11:33;25.10;;;13.00;;
75535;SDS011;64119;52.070;20.804;2023-03-01T00:14:02;35.60;;;14.50;;
75535;SDS011;64119;52.070;20.804;2023-03-01T00:16:35;26.70;;;12.70;;
75535;SDS011;64119;52.070;20.804;2023-03-01T00:19:09;31.50;;;13.50;;
75535;SDS011;64119;52.070;20.804;2023-03-01T00:21:40;34.90;;;15.60;;
75535;SDS011;64119;52.070;20.804;2023-03-01T00:24:08;41.60;;;17.50;;
75535;SDS011;64119;52.070;20.804;2023-03-01T00:26:37;32.10;;;15.60;;
75535;SDS011;64119;52.070;20.804;2023-03-01T00:29:05;36.80;;;17.00;;
75535;SDS011;64119;52.070;20.804;2023-03-01T00:31:33;40.50;;;19.50;;
75535;SDS011;64119;52.070;20.804;2023-03-01T00:34:03;35.90;;;15.90;;
75535;SDS011;64119;52.070;20.804;2023-03-01T00:36:33;35.60;;;15.70;;
75535;SDS011;64119;52.070;20.804;2023-03-01T00:39:04;31.60;;;14.60;;
75535;SDS011;64119;52.070;20.804;2023-03-01T00:41:34;34.50;;;15.00;;
75535;SDS011;64119;52.070;20.804;2023-03-01T00:44:02;37.10;;;15.60;;
75535;SDS011;64119;52.070;20.804;2023-03-01T00:46:30;30.20;;;14.20;;
75535;SDS011;64119;52.070;20.804;2023-03-01T00:49:00;34.50;;;15.60;;
75535;SDS011;64119;52.070;20.804;2023-03-01T00:51:29;31.30;;;15.20;;
75535;SDS011;64119;52.070;20.804;2023-03-01T00:53:58;34.80;;;13.90;;
75535;SDS011;64119;52.070;20.804;2023-03-01T00:56:28;33.00;;;14.70;;
75535;SDS011;64119;52.070;20.804;2023-03-01T00:58:57;34.40;;;15.60;;
75535;SDS011;64119;52.070;20.804;2023-03-01T01:01:26;35.60;;;15.40;;
75535;SDS011;64119;52.070;20.804;2023-03-01T01:04:00;32.60;;;15.10;;
75535;SDS011;64119;52.070;20.804;2023-03-01T01:06:32;33.20;;;15.40;;
75535;SDS011;64119;52.070;20.804;2023-03-01T01:09:03;35.50;;;14.60;;
75535;SDS011;64119;52.070;20.804;2023-03-01T01:11:34;32.00;;;15.00;;
75535;SDS011;64119;52.070;20.804;2023-03-01T01:16:31;35.10;;;14.40;;
75535;SDS011;64119;52.070;20.804;2023-03-01T01:19:01;31.80;;;13.70;;
75535;SDS011;64119;52.070;20.804;2023-03-01T01:21:29;33.10;;;13.60;;
75535;SDS011;64119;52.070;20.804;2023-03-01T01:23:56;31.60;;;13.90;;
75535;SDS011;64119;52.070;20.804;2023-03-01T01:26:29;32.20;;;13.20;;
75535;SDS011;64119;52.070;20.804;2023-03-01T01:28:59;30.80;;;15.10;;
75535;SDS011;64119;52.070;20.804;2023-03-01T01:31:27;29.40;;;14.20;;
75535;SDS011;64119;52.070;20.804;2023-03-01T01:33:57;28.80;;;14.20;;
75535;SDS011;64119;52.070;20.804;2023-03-01T01:36:26;28.00;;;12.80;;
75535;SDS011;64119;52.070;20.804;2023-03-01T01:38:55;30.70;;;14.60;;
75535;SDS011;64119;52.070;20.804;2023-03-01T01:41:24;33.10;;;14.00;;
75535;SDS011;64119;52.070;20.804;2023-03-01T01:49:44;28.20;;;13.00;;
75535;SDS011;64119;52.070;20.804;2023-03-01T01:52:19;30.90;;;13.30;;
75535;SDS011;64119;52.070;20.804;2023-03-01T01:54:57;31.70;;;13.00;;
75535;SDS011;64119;52.070;20.804;2023-03-01T01:57:36;35.60;;;13.70;;
75535;SDS011;64119;52.070;20.804;2023-03-01T02:00:09;27.20;;;14.30;;
75535;SDS011;64119;52.070;20.804;2023-03-01T02:02:40;28.00;;;13.40;;
75535;SDS011;64119;52.070;20.804;2023-03-01T02:07:56;28.30;;;12.70;;
75535;SDS011;64119;52.070;20.804;2023-03-01T02:10:26;34.30;;;13.80;;
75535;SDS011;64119;52.070;20.804;2023-03-01T02:12:55;30.10;;;12.90;;
75535;SDS011;64119;52.070;20.804;2023-03-01T02:15:23;27.80;;;12.50;;
75535;SDS011;64119;52.070;20.804;2023-03-01T02:17:52;24.80;;;12.10;;
75535;SDS011;64119;52.070;20.804;2023-03-01T02:20:34;24.70;;;11.80;;
75535;SDS011;64119;52.070;20.804;2023-03-01T02:23:19;35.10;;;13.80;;
75535;SDS011;64119;52.070;20.804;2023-03-01T02:28:52;23.70;;;12.50;;
75535;SDS011;64119;52.070;20.804;2023-03-01T02:31:20;27.40;;;12.70;;
75535;SDS011;64119;52.070;20.804;2023-03-01T02:36:51;17.70;;;7.50;;
75535;SDS011;64119;52.070;20.804;2023-03-01T02:39:25;24.90;;;11.20;;
75535;SDS011;64119;52.070;20.804;2023-03-01T02:41:57;30.50;;;13.70;;
75535;SDS011;64119;52.070;20.804;2023-03-01T02:44:26;27.60;;;11.40;;
75535;SDS011;64119;52.070;20.804;2023-03-01T02:46:55;32.30;;;14.00;;
75535;SDS011;64119;52.070;20.804;2023-03-01T02:49:30;39.30;;;15.60;;
75535;SDS011;64119;52.070;20.804;2023-03-01T02:52:17;32.50;;;13.70;;
75535;SDS011;64119;52.070;20.804;2023-03-01T02:55:17;34.90;;;14.50;;
75535;SDS011;64119;52.070;20.804;2023-03-01T02:57:45;27.50;;;14.70;;
75535;SDS011;64119;52.070;20.804;2023-03-01T03:00:22;30.60;;;14.30;;
75535;SDS011;64119;52.070;20.804;2023-03-01T03:02:54;37.20;;;16.00;;
75535;SDS011;64119;52.070;20.804;2023-03-01T03:05:25;30.20;;;14.90;;
75535;SDS011;64119;52.070;20.804;2023-03-01T03:07:58;32.80;;;14.80;;
75535;SDS011;64119;52.070;20.804;2023-03-01T03:10:29;31.40;;;15.50;;
75535;SDS011;64119;52.070;20.804;2023-03-01T03:13:03;35.40;;;15.30;;
75535;SDS011;64119;52.070;20.804;2023-03-01T03:15:33;32.70;;;15.20;;
75535;SDS011;64119;52.070;20.804;2023-03-01T03:18:07;35.30;;;15.50;;
75535;SDS011;64119;52.070;20.804;2023-03-01T03:20:38;33.70;;;14.40;;
75535;SDS011;64119;52.070;20.804;2023-03-01T03:23:08;28.60;;;14.20;;
75535;SDS011;64119;52.070;20.804;2023-03-01T03:25:36;30.70;;;13.20;;
75535;SDS011;64119;52.070;20.804;2023-03-01T03:28:06;28.90;;;14.60;;
75535;SDS011;64119;52.070;20.804;2023-03-01T03:30:38;29.50;;;13.20;;
75535;SDS011;64119;52.070;20.804;2023-03-01T03:33:07;28.60;;;13.30;;
75535;SDS011;64119;52.070;20.804;2023-03-01T03:35:41;29.60;;;13.00;;
75535;SDS011;64119;52.070;20.804;2023-03-01T03:38:15;24.50;;;12.70;;
75535;SDS011;64119;52.070;20.804;2023-03-01T03:40:46;32.00;;;12.80;;
75535;SDS011;64119;52.070;20.804;2023-03-01T03:43:19;30.30;;;13.50;;
75535;SDS011;64119;52.070;20.804;2023-03-01T03:45:50;33.50;;;14.50;;
75535;SDS011;64119;52.070;20.804;2023-03-01T03:48:18;31.90;;;14.40;;
75535;SDS011;64119;52.070;20.804;2023-03-01T03:50:47;31.70;;;14.40;;
75535;SDS011;64119;52.070;20.804;2023-03-01T03:53:21;29.60;;;12.70;;
75535;SDS011;64119;52.070;20.804;2023-03-01T03:55:50;33.70;;;13.70;;
75535;SDS011;64119;52.070;20.804;2023-03-01T03:58:20;32.30;;;13.80;;
75535;SDS011;64119;52.070;20.804;2023-03-01T04:00:51;27.60;;;13.10;;
75535;SDS011;64119;52.070;20.804;2023-03-01T04:03:21;23.40;;;10.30;;
75535;SDS011;64119;52.070;20.804;2023-03-01T04:05:51;23.70;;;11.40;;
75535;SDS011;64119;52.070;20.804;2023-03-01T04:08:19;26.90;;;11.70;;
75535;SDS011;64119;52.070;20.804;2023-03-01T04:10:49;26.00;;;12.20;;
75535;SDS011;64119;52.070;20.804;2023-03-01T04:13:20;30.30;;;14.90;;
75535;SDS011;64119;52.070;20.804;2023-03-01T04:18:18;27.80;;;11.70;;
75535;SDS011;64119;52.070;20.804;2023-03-01T04:20:48;29.40;;;13.10;;
75535;SDS011;64119;52.070;20.804;2023-03-01T04:23:16;28.50;;;12.60;;
75535;SDS011;64119;52.070;20.804;2023-03-01T04:25:50;30.70;;;13.00;;
75535;SDS011;64119;52.070;20.804;2023-03-01T04:28:25;28.30;;;12.10;;
75535;SDS011;64119;52.070;20.804;2023-03-01T04:31:05;28.40;;;12.80;;
75535;SDS011;64119;52.070;20.804;2023-03-01T04:33:42;25.30;;;10.70;;
75535;SDS011;64119;52.070;20.804;2023-03-01T04:36:12;28.10;;;13.10;;
75535;SDS011;64119;52.070;20.804;2023-03-01T04:38:41;24.60;;;12.10;;
75535;SDS011;64119;52.070;20.804;2023-03-01T04:41:10;28.00;;;12.90;;
75535;SDS011;64119;52.070;20.804;2023-03-01T04:43:39;31.30;;;13.50;;
75535;SDS011;64119;52.070;20.804;2023-03-01T04:46:07;27.80;;;13.40;;
75535;SDS011;64119;52.070;20.804;2023-03-01T04:48:41;27.80;;;12.00;;
75535;SDS011;64119;52.070;20.804;2023-03-01T04:51:11;26.10;;;12.00;;
75535;SDS011;64119;52.070;20.804;2023-03-01T04:53:43;26.30;;;12.50;;
75535;SDS011;64119;52.070;20.804;2023-03-01T04:56:12;24.10;;;11.40;;
75535;SDS011;64119;52.070;20.804;2023-03-01T04:58:41;24.60;;;11.30;;
75535;SDS011;64119;52.070;20.804;2023-03-01T05:01:10;19.90;;;10.30;;
75535;SDS011;64119;52.070;20.804;2023-03-01T05:03:44;27.90;;;12.50;;
75535;SDS011;64119;52.070;20.804;2023-03-01T05:06:14;22.20;;;10.60;;
75535;SDS011;64119;52.070;20.804;2023-03-01T05:08:42;21.30;;;10.70;;
75535;SDS011;64119;52.070;20.804;2023-03-01T05:11:11;26.00;;;10.90;;
75535;SDS011;64119;52.070;20.804;2023-03-01T05:13:39;21.70;;;10.70;;
75535;SDS011;64119;52.070;20.804;2023-03-01T05:16:08;22.10;;;11.60;;
75535;SDS011;64119;52.070;20.804;2023-03-01T05:18:39;24.30;;;11.10;;
75535;SDS011;64119;52.070;20.804;2023-03-01T05:21:09;24.20;;;11.60;;
75535;SDS011;64119;52.070;20.804;2023-03-01T05:23:39;21.20;;;10.50;;
75535;SDS011;64119;52.070;20.804;2023-03-01T05:26:08;29.70;;;12.70;;
75535;SDS011;64119;52.070;20.804;2023-03-01T05:28:54;23.00;;;11.60;;
75535;SDS011;64119;52.070;20.804;2023-03-01T05:31:26;22.00;;;10.00;;
75535;SDS011;64119;52.070;20.804;2023-03-01T05:33:54;21.40;;;10.50;;
75535;SDS011;64119;52.070;20.804;2023-03-01T05:36:22;25.00;;;10.60;;
75535;SDS011;64119;52.070;20.804;2023-03-01T05:38:50;20.20;;;10.40;;
75535;SDS011;64119;52.070;20.804;2023-03-01T05:41:18;21.20;;;10.00;;
75535;SDS011;64119;52.070;20.804;2023-03-01T05:43:46;15.50;;;7.50;;
75535;SDS011;64119;52.070;20.804;2023-03-01T05:46:13;12.90;;;6.80;;
75535;SDS011;64119;52.070;20.804;2023-03-01T05:48:42;13.10;;;6.20;;
75535;SDS011;64119;52.070;20.804;2023-03-01T05:51:11;17.30;;;8.70;;
75535;SDS011;64119;52.070;20.804;2023-03-01T05:53:39;13.80;;;7.20;;
75535;SDS011;64119;52.070;20.804;2023-03-01T05:56:07;13.50;;;6.70;;
75535;SDS011;64119;52.070;20.804;2023-03-01T05:58:34;17.40;;;8.70;;
75535;SDS011;64119;52.070;20.804;2023-03-01T06:01:02;16.60;;;6.60;;
75535;SDS011;64119;52.070;20.804;2023-03-01T06:03:30;11.20;;;5.60;;
75535;SDS011;64119;52.070;20.804;2023-03-01T06:05:58;14.90;;;7.10;;
75535;SDS011;64119;52.070;20.804;2023-03-01T06:08:26;21.10;;;9.60;;
75535;SDS011;64119;52.070;20.804;2023-03-01T06:10:54;26.40;;;10.40;;
75535;SDS011;64119;52.070;20.804;2023-03-01T06:13:23;23.50;;;10.90;;
75535;SDS011;64119;52.070;20.804;2023-03-01T06:15:51;15.40;;;7.70;;
75535;SDS011;64119;52.070;20.804;2023-03-01T06:18:19;19.50;;;10.20;;
75535;SDS011;64119;52.070;20.804;2023-03-01T06:20:52;18.80;;;8.70;;
75535;SDS011;64119;52.070;20.804;2023-03-01T06:23:23;23.00;;;10.80;;
75535;SDS011;64119;52.070;20.804;2023-03-01T06:25:51;20.90;;;10.70;;
75535;SDS011;64119;52.070;20.804;2023-03-01T06:28:19;19.90;;;8.90;;
75535;SDS011;64119;52.070;20.804;2023-03-01T06:30:47;18.40;;;10.80;;
75535;SDS011;64119;52.070;20.804;2023-03-01T06:33:14;17.60;;;7.90;;
75535;SDS011;64119;52.070;20.804;2023-03-01T06:35:42;21.20;;;10.90;;
75535;SDS011;64119;52.070;20.804;2023-03-01T06:38:10;25.00;;;11.40;;
75535;SDS011;64119;52.070;20.804;2023-03-01T06:40:38;20.60;;;10.40;;
75535;SDS011;64119;52.070;20.804;2023-03-01T06:43:06;18.40;;;9.90;;
75535;SDS011;64119;52.070;20.804;2023-03-01T06:45:34;16.10;;;8.00;;
75535;SDS011;64119;52.070;20.804;2023-03-01T06:48:06;27.10;;;12.00;;
75535;SDS011;64119;52.070;20.804;2023-03-01T06:50:35;25.80;;;11.60;;
75535;SDS011;64119;52.070;20.804;2023-03-01T06:53:03;17.50;;;10.20;;
75535;SDS011;64119;52.070;20.804;2023-03-01T06:55:31;31.70;;;12.50;;
75535;SDS011;64119;52.070;20.804;2023-03-01T06:58:00;29.20;;;13.70;;
75535;SDS011;64119;52.070;20.804;2023-03-01T07:00:29;21.50;;;10.40;;
75535;SDS011;64119;52.070;20.804;2023-03-01T07:02:58;31.00;;;12.50;;
75535;SDS011;64119;52.070;20.804;2023-03-01T07:05:28;17.60;;;8.50;;
75535;SDS011;64119;52.070;20.804;2023-03-01T07:07:57;17.00;;;8.00;;
75535;SDS011;64119;52.070;20.804;2023-03-01T07:10:24;27.30;;;13.00;;
75535;SDS011;64119;52.070;20.804;2023-03-01T07:12:56;15.90;;;9.00;;
75535;SDS011;64119;52.070;20.804;2023-03-01T07:15:25;30.80;;;12.50;;
75535;SDS011;64119;52.070;20.804;2023-03-01T07:17:54;25.40;;;12.50;;
75535;SDS011;64119;52.070;20.804;2023-03-01T07:20:23;23.60;;;9.70;;
75535;SDS011;64119;52.070;20.804;2023-03-01T07:22:53;25.40;;;14.00;;
75535;SDS011;64119;52.070;20.804;2023-03-01T07:25:22;27.70;;;13.40;;
75535;SDS011;64119;52.070;20.804;2023-03-01T07:27:50;24.30;;;12.50;;
75535;SDS011;64119;52.070;20.804;2023-03-01T07:30:20;24.80;;;11.40;;
75535;SDS011;64119;52.070;20.804;2023-03-01T07:32:48;26.00;;;14.80;;
75535;SDS011;64119;52.070;20.804;2023-03-01T07:35:16;21.70;;;12.00;;
75535;SDS011;64119;52.070;20.804;2023-03-01T07:37:45;24.70;;;13.10;;
75535;SDS011;64119;52.070;20.804;2023-03-01T07:40:13;18.90;;;8.80;;
75535;SDS011;64119;52.070;20.804;2023-03-01T07:42:41;17.90;;;9.60;;
75535;SDS011;64119;52.070;20.804;2023-03-01T07:45:09;22.70;;;11.80;;
75535;SDS011;64119;52.070;20.804;2023-03-01T07:47:37;24.20;;;12.80;;
75535;SDS011;64119;52.070;20.804;2023-03-01T07:50:06;18.80;;;9.40;;
75535;SDS011;64119;52.070;20.804;2023-03-01T07:52:34;20.70;;;10.20;;
75535;SDS011;64119;52.070;20.804;2023-03-01T07:55:02;23.80;;;12.60;;
75535;SDS011;64119;52.070;20.804;2023-03-01T07:57:30;23.70;;;11.90;;
75535;SDS011;64119;52.070;20.804;2023-03-01T07:59:57;23.80;;;10.90;;
75535;SDS011;64119;52.070;20.804;2023-03-01T08:02:25;24.90;;;12.30;;
75535;SDS011;64119;52.070;20.804;2023-03-01T08:04:52;25.60;;;12.80;;
75535;SDS011;64119;52.070;20.804;2023-03-01T08:07:20;22.70;;;12.10;;
75535;SDS011;64119;52.070;20.804;2023-03-01T08:09:48;21.70;;;10.80;;
75535;SDS011;64119;52.070;20.804;2023-03-01T08:12:16;21.70;;;7.40;;
75535;SDS011;64119;52.070;20.804;2023-03-01T08:14:44;23.60;;;11.20;;
75535;SDS011;64119;52.070;20.804;2023-03-01T08:17:13;15.30;;;7.70;;
75535;SDS011;64119;52.070;20.804;2023-03-01T08:19:42;22.60;;;11.90;;
75535;SDS011;64119;52.070;20.804;2023-03-01T08:22:10;24.40;;;11.70;;
75535;SDS011;64119;52.070;20.804;2023-03-01T08:24:38;19.70;;;10.50;;
75535;SDS011;64119;52.070;20.804;2023-03-01T08:27:05;17.50;;;9.50;;
75535;SDS011;64119;52.070;20.804;2023-03-01T08:29:33;14.60;;;8.20;;
75535;SDS011;64119;52.070;20.804;2023-03-01T08:32:01;22.60;;;10.50;;
75535;SDS011;64119;52.070;20.804;2023-03-01T08:34:29;18.10;;;9.80;;
75535;SDS011;64119;52.070;20.804;2023-03-01T08:36:58;16.30;;;8.60;;
75535;SDS011;64119;52.070;20.804;2023-03-01T08:39:26;13.00;;;7.10;;
75535;SDS011;64119;52.070;20.804;2023-03-01T08:41:54;15.70;;;8.80;;
75535;SDS011;64119;52.070;20.804;2023-03-01T08:44:22;16.20;;;7.70;;
75535;SDS011;64119;52.070;20.804;2023-03-01T08:46:50;9.50;;;5.20;;
75535;SDS011;64119;52.070;20.804;2023-03-01T08:49:19;14.00;;;7.10;;
75535;SDS011;64119;52.070;20.804;2023-03-01T08:51:47;13.00;;;6.70;;
75535;SDS011;64119;52.070;20.804;2023-03-01T08:54:17;11.80;;;6.50;;
75535;SDS011;64119;52.070;20.804;2023-03-01T08:56:47;10.40;;;5.70;;
75535;SDS011;64119;52.070;20.804;2023-03-01T08:59:16;10.50;;;5.80;;
75535;SDS011;64119;52.070;20.804;2023-03-01T09:01:44;9.80;;;5.80;;
75535;SDS011;64119;52.070;20.804;2023-03-01T09:04:14;10.00;;;6.10;;
75535;SDS011;64119;52.070;20.804;2023-03-01T09:06:42;12.50;;;6.10;;
75535;SDS011;64119;52.070;20.804;2023-03-01T09:09:13;8.00;;;4.20;;
75535;SDS011;64119;52.070;20.804;2023-03-01T09:11:43;11.50;;;5.90;;
75535;SDS011;64119;52.070;20.804;2023-03-01T09:14:13;9.60;;;5.30;;
75535;SDS011;64119;52.070;20.804;2023-03-01T09:16:41;10.40;;;6.20;;
75535;SDS011;64119;52.070;20.804;2023-03-01T09:19:09;8.40;;;4.40;;
75535;SDS011;64119;52.070;20.804;2023-03-01T09:21:38;10.90;;;5.80;;
75535;SDS011;64119;52.070;20.804;2023-03-01T09:31:37;11.50;;;4.20;;
75535;SDS011;64119;52.070;20.804;2023-03-01T09:34:06;6.90;;;3.60;;
75535;SDS011;64119;52.070;20.804;2023-03-01T09:36:34;8.20;;;3.80;;
75535;SDS011;64119;52.070;20.804;2023-03-01T09:39:02;11.10;;;5.10;;
75535;SDS011;64119;52.070;20.804;2023-03-01T09:46:45;13.20;;;5.30;;
75535;SDS011;64119;52.070;20.804;2023-03-01T09:49:17;8.60;;;4.40;;
75535;SDS011;64119;52.070;20.804;2023-03-01T09:54:23;9.00;;;4.80;;
75535;SDS011;64119;52.070;20.804;2023-03-01T09:57:11;5.80;;;4.10;;
75535;SDS011;64119;52.070;20.804;2023-03-01T10:02:47;10.60;;;5.50;;
75535;SDS011;64119;52.070;20.804;2023-03-01T10:05:31;8.50;;;5.20;;
75535;SDS011;64119;52.070;20.804;2023-03-01T10:11:28;8.90;;;5.50;;
75535;SDS011;64119;52.070;20.804;2023-03-01T10:19:38;40.50;;;8.30;;
75535;SDS011;64119;52.070;20.804;2023-03-01T10:22:19;9.20;;;5.30;;
75535;SDS011;64119;52.070;20.804;2023-03-01T10:24:57;11.10;;;6.10;;
75535;SDS011;64119;52.070;20.804;2023-03-01T10:27:34;14.60;;;7.20;;
75535;SDS011;64119;52.070;20.804;2023-03-01T10:30:19;11.90;;;6.80;;
75535;SDS011;64119;52.070;20.804;2023-03-01T10:32:59;36.00;;;9.00;;
75535;SDS011;64119;52.070;20.804;2023-03-01T10:35:33;12.80;;;7.00;;
75535;SDS011;64119;52.070;20.804;2023-03-01T10:38:05;16.30;;;7.70;;
75535;SDS011;64119;52.070;20.804;2023-03-01T10:41:14;13.90;;;7.50;;
75535;SDS011;64119;52.070;20.804;2023-03-01T10:43:43;11.90;;;6.80;;
75535;SDS011;64119;52.070;20.804;2023-03-01T10:46:24;6.80;;;4.20;;
75535;SDS011;64119;52.070;20.804;2023-03-01T10:49:06;12.90;;;6.50;;
75535;SDS011;64119;52.070;20.804;2023-03-01T10:51:50;15.30;;;6.50;;
75535;SDS011;64119;52.070;20.804;2023-03-01T10:56:58;10.00;;;6.40;;
75535;SDS011;64119;52.070;20.804;2023-03-01T10:59:35;7.30;;;4.20;;
75535;SDS011;64119;52.070;20.804;2023-03-01T11:02:17;14.10;;;7.60;;
75535;SDS011;64119;52.070;20.804;2023-03-01T11:07:23;11.00;;;5.50;;
75535;SDS011;64119;52.070;20.804;2023-03-01T11:09:51;13.00;;;6.20;;
75535;SDS011;64119;52.070;20.804;2023-03-01T11:12:20;10.40;;;5.00;;
75535;SDS011;64119;52.070;20.804;2023-03-01T11:14:49;8.40;;;5.20;;
75535;SDS011;64119;52.070;20.804;2023-03-01T11:17:27;12.80;;;6.20;;
75535;SDS011;64119;52.070;20.804;2023-03-01T11:22:47;8.70;;;5.80;;
75535;SDS011;64119;52.070;20.804;2023-03-01T11:25:20;10.00;;;5.90;;
75535;SDS011;64119;52.070;20.804;2023-03-01T11:27:53;10.10;;;5.40;;
75535;SDS011;64119;52.070;20.804;2023-03-01T11:32:56;6.70;;;4.00;;
75535;SDS011;64119;52.070;20.804;2023-03-01T11:35:33;7.20;;;3.50;;
75535;SDS011;64119;52.070;20.804;2023-03-01T11:40:41;9.60;;;5.00;;
75535;SDS011;64119;52.070;20.804;2023-03-01T11:45:54;9.80;;;5.60;;
75535;SDS011;64119;52.070;20.804;2023-03-01T11:51:21;9.80;;;5.30;;
75535;SDS011;64119;52.070;20.804;2023-03-01T11:56:37;11.80;;;6.60;;
75535;SDS011;64119;52.070;20.804;2023-03-01T12:04:51;8.90;;;5.30;;
75535;SDS011;64119;52.070;20.804;2023-03-01T12:07:52;7.30;;;3.60;;
75535;SDS011;64119;52.070;20.804;2023-03-01T12:10:48;8.20;;;3.80;;
75535;SDS011;64119;52.070;20.804;2023-03-01T12:22:29;10.60;;;5.30;;
75535;SDS011;64119;52.070;20.804;2023-03-01T12:31:01;12.50;;;5.90;;
75535;SDS011;64119;52.070;20.804;2023-03-01T12:33:40;9.20;;;5.10;;
75535;SDS011;64119;52.070;20.804;2023-03-01T12:41:57;11.50;;;5.50;;
75535;SDS011;64119;52.070;20.804;2023-03-01T12:50:11;8.70;;;5.60;;
75535;SDS011;64119;52.070;20.804;2023-03-01T12:52:47;9.60;;;6.20;;
75535;SDS011;64119;52.070;20.804;2023-03-01T12:55:24;10.20;;;5.50;;
75535;SDS011;64119;52.070;20.804;2023-03-01T12:57:57;12.70;;;7.20;;
75535;SDS011;64119;52.070;20.804;2023-03-01T13:00:30;10.00;;;5.50;;
75535;SDS011;64119;52.070;20.804;2023-03-01T13:11:29;10.60;;;5.70;;
75535;SDS011;64119;52.070;20.804;2023-03-01T13:16:52;12.50;;;5.90;;
75535;SDS011;64119;52.070;20.804;2023-03-01T13:19:22;14.00;;;7.00;;
75535;SDS011;64119;52.070;20.804;2023-03-01T13:33:44;9.30;;;5.20;;
75535;SDS011;64119;52.070;20.804;2023-03-01T13:39:01;14.00;;;8.20;;
75535;SDS011;64119;52.070;20.804;2023-03-01T13:47:37;14.90;;;6.20;;
75535;SDS011;64119;52.070;20.804;2023-03-01T13:52:32;10.50;;;6.10;;
75535;SDS011;64119;52.070;20.804;2023-03-01T13:57:41;17.30;;;7.20;;
75535;SDS011;64119;52.070;20.804;2023-03-01T14:00:27;14.60;;;6.70;;
75535;SDS011;64119;52.070;20.804;2023-03-01T14:05:33;13.20;;;8.60;;
75535;SDS011;64119;52.070;20.804;2023-03-01T14:21:00;11.10;;;6.10;;
75535;SDS011;64119;52.070;20.804;2023-03-01T14:23:28;10.30;;;5.10;;
75535;SDS011;64119;52.070;20.804;2023-03-01T14:25:57;9.90;;;6.20;;
75535;SDS011;64119;52.070;20.804;2023-03-01T14:30:54;11.80;;;7.00;;
75535;SDS011;64119;52.070;20.804;2023-03-01T14:33:25;11.10;;;5.30;;
75535;SDS011;64119;52.070;20.804;2023-03-01T14:38:32;9.60;;;5.50;;
75535;SDS011;64119;52.070;20.804;2023-03-01T14:41:12;14.60;;;5.80;;
75535;SDS011;64119;52.070;20.804;2023-03-01T14:49:14;13.50;;;6.90;;
75535;SDS011;64119;52.070;20.804;2023-03-01T14:51:49;11.80;;;5.40;;
75535;SDS011;64119;52.070;20.804;2023-03-01T14:54:23;12.80;;;5.80;;
75535;SDS011;64119;52.070;20.804;2023-03-01T14:56:57;11.20;;;6.40;;
75535;SDS011;64119;52.070;20.804;2023-03-01T14:59:27;12.90;;;6.40;;
75535;SDS011;64119;52.070;20.804;2023-03-01T15:01:56;14.70;;;7.10;;
75535;SDS011;64119;52.070;20.804;2023-03-01T15:04:26;11.40;;;6.40;;
75535;SDS011;64119;52.070;20.804;2023-03-01T15:06:56;13.90;;;7.10;;
75535;SDS011;64119;52.070;20.804;2023-03-01T15:09:32;18.80;;;7.70;;
75535;SDS011;64119;52.070;20.804;2023-03-01T15:12:23;13.00;;;6.20;;
75535;SDS011;64119;52.070;20.804;2023-03-01T15:14:56;13.00;;;7.20;;
75535;SDS011;64119;52.070;20.804;2023-03-01T15:17:34;11.40;;;5.60;;
75535;SDS011;64119;52.070;20.804;2023-03-01T15:20:06;12.50;;;5.20;;
75535;SDS011;64119;52.070;20.804;2023-03-01T15:22:44;11.40;;;5.50;;
75535;SDS011;64119;52.070;20.804;2023-03-01T15:25:19;12.70;;;6.50;;
75535;SDS011;64119;52.070;20.804;2023-03-01T15:27:50;12.00;;;6.40;;
75535;SDS011;64119;52.070;20.804;2023-03-01T15:30:25;11.40;;;5.60;;
75535;SDS011;64119;52.070;20.804;2023-03-01T15:35:49;12.30;;;6.30;;
75535;SDS011;64119;52.070;20.804;2023-03-01T15:38:50;12.60;;;7.00;;
75535;SDS011;64119;52.070;20.804;2023-03-01T15:41:45;16.50;;;7.50;;
75535;SDS011;64119;52.070;20.804;2023-03-01T15:44:18;13.60;;;6.40;;
75535;SDS011;64119;52.070;20.804;2023-03-01T15:47:23;17.90;;;7.20;;
75535;SDS011;64119;52.070;20.804;2023-03-01T15:49:54;14.50;;;6.40;;
75535;SDS011;64119;52.070;20.804;2023-03-01T15:52:35;16.30;;;7.80;;
75535;SDS011;64119;52.070;20.804;2023-03-01T15:55:15;16.00;;;6.50;;
75535;SDS011;64119;52.070;20.804;2023-03-01T15:57:45;12.80;;;6.70;;
75535;SDS011;64119;52.070;20.804;2023-03-01T16:00:14;14.70;;;7.30;;
75535;SDS011;64119;52.070;20.804;2023-03-01T16:02:43;14.20;;;7.30;;
75535;SDS011;64119;52.070;20.804;2023-03-01T16:05:17;11.60;;;6.60;;
75535;SDS011;64119;52.070;20.804;2023-03-01T16:07:48;12.70;;;6.30;;
75535;SDS011;64119;52.070;20.804;2023-03-01T16:10:16;14.30;;;6.40;;
75535;SDS011;64119;52.070;20.804;2023-03-01T16:12:45;11.70;;;6.90;;
75535;SDS011;64119;52.070;20.804;2023-03-01T16:15:19;23.20;;;7.90;;
75535;SDS011;64119;52.070;20.804;2023-03-01T16:17:50;14.10;;;7.50;;
75535;SDS011;64119;52.070;20.804;2023-03-01T16:20:22;12.70;;;7.50;;
75535;SDS011;64119;52.070;20.804;2023-03-01T16:22:59;19.50;;;8.20;;
75535;SDS011;64119;52.070;20.804;2023-03-01T16:25:29;17.80;;;9.10;;
75535;SDS011;64119;52.070;20.804;2023-03-01T16:27:57;18.00;;;8.30;;
75535;SDS011;64119;52.070;20.804;2023-03-01T16:30:28;18.60;;;8.80;;
75535;SDS011;64119;52.070;20.804;2023-03-01T16:32:55;17.20;;;8.70;;
75535;SDS011;64119;52.070;20.804;2023-03-01T16:35:23;17.40;;;8.60;;
75535;SDS011;64119;52.070;20.804;2023-03-01T16:37:51;17.00;;;8.70;;
75535;SDS011;64119;52.070;20.804;2023-03-01T16:40:22;19.10;;;9.00;;
75535;SDS011;64119;52.070;20.804;2023-03-01T16:42:52;19.50;;;8.90;;
75535;SDS011;64119;52.070;20.804;2023-03-01T16:45:22;24.10;;;9.50;;
75535;SDS011;64119;52.070;20.804;2023-03-01T16:47:55;20.40;;;8.70;;
75535;SDS011;64119;52.070;20.804;2023-03-01T16:50:23;19.60;;;9.90;;
75535;SDS011;64119;52.070;20.804;2023-03-01T16:52:50;20.90;;;9.00;;
75535;SDS011;64119;52.070;20.804;2023-03-01T16:55:18;27.90;;;9.90;;
75535;SDS011;64119;52.070;20.804;2023-03-01T16:57:46;22.30;;;9.50;;
75535;SDS011;64119;52.070;20.804;2023-03-01T17:00:14;22.60;;;12.00;;
75535;SDS011;64119;52.070;20.804;2023-03-01T17:02:42;30.30;;;12.50;;
75535;SDS011;64119;52.070;20.804;2023-03-01T17:05:10;33.80;;;13.00;;
75535;SDS011;64119;52.070;20.804;2023-03-01T17:07:39;31.40;;;12.80;;
75535;SDS011;64119;52.070;20.804;2023-03-01T17:10:08;27.80;;;12.20;;
75535;SDS011;64119;52.070;20.804;2023-03-01T17:12:37;27.70;;;12.90;;
75535;SDS011;64119;52.070;20.804;2023-03-01T17:15:05;27.80;;;13.70;;
75535;SDS011;64119;52.070;20.804;2023-03-01T17:17:34;35.20;;;15.30;;
75535;SDS011;64119;52.070;20.804;2023-03-01T17:20:02;35.90;;;16.30;;
75535;SDS011;64119;52.070;20.804;2023-03-01T17:22:31;36.40;;;15.20;;
75535;SDS011;64119;52.070;20.804;2023-03-01T17:24:59;41.60;;;16.10;;
75535;SDS011;64119;52.070;20.804;2023-03-01T17:27:27;35.00;;;14.70;;